ADDS METAR Data INFO
IDs: Format: Raw Decoded Include TAF

Data at: 0426 UTC 21 Nov 2017

KSAT 210351Z 20006KT 10SM SCT250 15/08 A3002 RMK AO2 SLP154 T01500083
KSAT 210251Z 19006KT 10SM FEW250 15/08 A3003 RMK AO2 SLP158 T01500078 51003
KSAT 210151Z 18008KT 10SM SCT250 16/07 A3003 RMK AO2 SLP158 T01610072
KSAT 210051Z 18005KT 10SM SCT250 17/05 A3003 RMK AO2 SLP157 T01720050
KSAT 202351Z 18004KT 10SM BKN250 18/03 A3002 RMK AO2 SLP155 T01780033 10206 20178 56008
KSAT 202251Z 21007KT 10SM FEW070 BKN250 19/02 A3002 RMK AO2 SLP155 T01940017
KSAT 202151Z 18011KT 10SM FEW070 BKN250 20/01 A3003 RMK AO2 SLP156 T02000011
KSAT 202051Z 21012KT 10SM BKN250 20/00 A3004 RMK AO2 SLP162 T02000000 56041
KSAT 201951Z 20007G15KT 160V220 10SM FEW250 20/M01 A3007 RMK AO2 SLP171 T02001011
KSAT 201851Z 22010G15KT 10SM FEW250 18/M01 A3012 RMK AO2 SLP191 T01831011
KSAT 201751Z 20006KT 10SM FEW250 18/M01 A3017 RMK AO2 SLP205 T01781006 10178 20056 58018
KSAT 201651Z 18006KT 10SM FEW250 16/00 A3021 RMK AO2 SLP220 T01610000
KSAT 201551Z 09004KT 10SM FEW250 14/01 A3022 RMK AO2 SLP223 T01390011
KSAT 201451Z COR 09003KT 10SM FEW220 11/02 A3022 RMK AO2 SLP225 T01110017 51011
KSAT 201351Z 30003KT 10SM FEW250 08/03 A3021 RMK AO2 SLP223 T00780028
KSAT 201251Z 30003KT 10SM SCT220 07/02 A3020 RMK AO2 SLP217 T00670017
KSAT 201151Z 30003KT 10SM BKN220 07/02 A3019 RMK AO2 SLP213 T00670017 10089 20056 56004
KSAT 201051Z 31003KT 10SM BKN170 OVC250 06/03 A3019 RMK AO2 SLP213 T00610028
KSAT 200951Z 31003KT 10SM BKN170 OVC250 07/02 A3019 RMK AO2 SLP213 T00720022
KSAT 200851Z 30003KT 10SM OVC220 08/02 A3020 RMK AO2 SLP216 T00780022 58007
KSAT 200751Z 00000KT 10SM BKN190 BKN250 07/03 A3021 RMK AO2 SLP218 T00720028
KSAT 200651Z 30003KT 10SM BKN170 BKN250 08/03 A3023 RMK AO2 SLP225 T00830028
KSAT 200551Z 33004KT 10SM BKN170 BKN250 09/02 A3022 RMK AO2 SLP223 T00890022 10144 20083 401830061 58012
KSAT 200451Z 35003KT 10SM BKN170 BKN250 09/02 A3023 RMK AO2 SLP227 T00940022
KSAT 200351Z 00000KT 10SM BKN180 BKN250 11/01 A3025 RMK AO2 SLP233 T01110011
KSAT 200251Z 00000KT 10SM BKN250 12/M01 A3026 RMK AO2 SLP235 T01221006 53008
KSAT 200151Z 00000KT 10SM BKN250 12/M01 A3024 RMK AO2 SLP230 T01221006
KSAT 200051Z 05004KT 10SM BKN250 13/M01 A3024 RMK AO2 SLP231 T01331011
KSAT 192351Z 05003KT 10SM BKN250 14/M02 A3023 RMK AO2 SLP227 T01441022 10183 20144 55008
KSAT 192251Z 05006KT 10SM BKN250 17/M03 A3023 RMK AO2 SLP225 T01671028
KSAT 192151Z 07003KT 10SM SCT250 18/M04 A3024 RMK AO2 SLP229 T01781039
KSAT 192051Z 06006KT 10SM BKN250 18/M05 A3025 RMK AO2 SLP234 T01781050 56036
KSAT 191951Z 03004KT 10SM BKN250 18/M04 A3028 RMK AO2 SLP243 T01781039
KSAT 191851Z 36005KT 10SM BKN250 18/M04 A3032 RMK AO2 SLP255 T01781039
KSAT 191751Z 04010G17KT 10SM BKN250 16/M03 A3036 RMK AO2 SLP271 T01611028 10167 20061 58012
KSAT 191651Z 04009G18KT 10SM BKN250 16/M03 A3040 RMK AO2 SLP283 T01561028